Flight Track Log - Related Links

Times and Time Zones

All times are in EDT time to prevent confusion due to time zone crossing. See the AAL254 flight status page for this flight to view local times or setup timezone preferences in your user account.

Time Position Orientation Groundspeed Altitude Reporting Facility
EDT Latitude Longitude Course Direction KTS MPH feet Rate Location/Type
Thu 07:10:33 PM 20.9000 -156.4167 75° East 160 184 1,200  Level Honolulu Center
Thu 07:11:33 PM 20.9500 -156.3667 43° Northeast 210 242 3,100 2,579 Climbing Honolulu Center
Thu 07:12:00 PM 20.9333 -156.1718 90° East  Level FlightAware Approximate
Thu 07:12:34 PM 20.9667 -156.3000 75° East 260 299 6,400  Level Honolulu Center
Thu 07:13:00 PM 20.9560 -156.0425 75° East  Level FlightAware Approximate
Thu 07:13:34 PM 20.9833 -156.2167 78° East 280 322 9,500  Level Honolulu Center
Thu 07:14:00 PM 20.9863 -155.9147 73° East  Level FlightAware Approximate
Thu 07:14:34 PM 21.0167 -156.1333 67° East 320 368 11,500  Level Honolulu Center
Thu 07:15:00 PM 21.0237 -155.7885 75° East  Level FlightAware Approximate
Thu 07:15:35 PM 21.0500 -156.0167 73° East 390 449 13,100  Level Honolulu Center
Thu 07:16:35 PM 21.0833 -155.9000 73° East 420 483 15,600 2,300 Climbing Honolulu Center
Thu 07:17:35 PM 21.1167 -155.8000 70° East 440 506 17,700 2,231 Climbing Honolulu Center
Thu 07:18:36 PM 21.1667 -155.6500 70° East 460 529 20,100 2,182 Climbing Honolulu Center
Thu 07:19:36 PM 21.2000 -155.5333 73° East 470 541 22,100 2,000 Climbing Honolulu Center
Thu 07:20:36 PM 21.2500 -155.4000 68° East 480 552 24,100 1,884 Climbing Honolulu Center
Thu 07:21:37 PM 21.3000 -155.2667 68° East 490 564 25,900 1,686 Climbing Honolulu Center
Thu 07:22:37 PM 21.3333 -155.1167 77° East 500 575 27,500 1,934 Climbing Honolulu Center
Thu 07:23:38 PM 21.3833 -154.9833 68° East 500 575 29,800 2,182 Climbing Honolulu Center
Thu 07:24:38 PM 21.4333 -154.8333 70° East 500 575 31,900 2,000 Climbing Honolulu Center
Thu 07:25:38 PM 21.4667 -154.7000 75° East 490 564 33,800 1,587 Climbing Honolulu Center
Thu 07:26:39 PM 21.5167 -154.5667 68° East 500 575 35,100 1,289 Climbing Honolulu Center
Thu 07:27:39 PM 21.5667 -154.4167 70° East 500 575 36,400 1,150 Climbing Honolulu Center
Thu 07:28:39 PM 21.6000 -154.2833 75° East 500 575 37,400 793 Climbing Honolulu Center
Thu 07:29:40 PM 21.6667 -154.1000 69° East 500 575 38,000 298 Climbing Honolulu Center
Thu 07:30:40 PM 21.7000 -153.9667 75° East 510 587 38,000  Level Honolulu Center
Thu 07:31:40 PM 21.7500 -153.8333 68° East 500 575 38,000  Level Honolulu Center
Thu 07:32:40 PM 21.8000 -153.6833 70° East 510 587 38,000  Level Honolulu Center
Thu 07:33:41 PM 21.8333 -153.5500 75° East 510 587 38,000  Level Honolulu Center
Thu 07:34:41 PM 21.8833 -153.4000 70° East 510 587 38,000  Level Honolulu Center
Thu 07:35:41 PM 21.9333 -153.2333 72° East 520 598 38,000  Level Honolulu Center
Thu 07:37:00 PM 21.9846 -153.0599 72° East  Level FlightAware Approximate
Thu 07:44:00 PM 22.2538 -152.1355 72° East  Level FlightAware Approximate
Thu 07:45:00 PM 22.2919 -152.0032 73° East  Level FlightAware Approximate
Thu 07:46:00 PM 22.3378 -151.8743 62° Northeast  Level FlightAware Approximate
Thu 07:47:00 PM 22.3979 -151.7518 62° Northeast  Level FlightAware Approximate
Thu 07:47:13 PM 22.3500 -151.8833 62° Northeast 510 587 38,000  Level Oakland Oceanic (ODAPS)
Thu 07:48:00 PM 22.4580 -151.6292 62° Northeast  Level FlightAware Approximate
Thu 07:49:00 PM 22.5179 -151.5065 62° Northeast  Level FlightAware Approximate
Thu 07:50:00 PM 22.5777 -151.3837 62° Northeast  Level FlightAware Approximate
Thu 07:51:00 PM 22.6375 -151.2608 62° Northeast  Level FlightAware Approximate
Thu 07:52:00 PM 22.6972 -151.1378 62° Northeast  Level FlightAware Approximate
Thu 07:53:00 PM 22.8786 -150.7966 62° Northeast 510 587 38,000  Level FlightAware Transoceanic
Thu 07:54:00 PM 22.9441 -150.6601 62° Northeast 510 587 38,000  Level FlightAware Transoceanic
Thu 07:55:00 PM 23.0096 -150.5236 63° Northeast 510 587 38,000  Level FlightAware Transoceanic
Thu 07:56:00 PM 23.0749 -150.3869 63° Northeast 510 587 38,000  Level FlightAware Transoceanic
Thu 07:57:00 PM 23.1401 -150.2500 63° Northeast 510 587 38,000  Level FlightAware Transoceanic
Thu 07:58:00 PM 23.2052 -150.1131 63° Northeast 510 587 38,000  Level FlightAware Transoceanic
Thu 07:59:00 PM 23.2701 -149.9760 63° Northeast 510 587 38,000  Level FlightAware Transoceanic
Thu 08:00:00 PM 23.3350 -149.8387 63° Northeast 510 587 38,000  Level FlightAware Transoceanic
Thu 08:01:00 PM 23.3997 -149.7014 63° Northeast 510 587 38,000  Level FlightAware Transoceanic
Thu 08:02:00 PM 23.4643 -149.5639 63° Northeast 510 587 38,000  Level FlightAware Transoceanic
Thu 08:03:00 PM 23.5288 -149.4262 63° Northeast 510 587 38,000  Level FlightAware Transoceanic
Thu 08:04:00 PM 23.5931 -149.2885 63° Northeast 510 587 38,000  Level FlightAware Transoceanic
Thu 08:05:00 PM 23.6574 -149.1505 63° Northeast 510 587 38,000  Level FlightAware Transoceanic
Thu 08:06:00 PM 23.7215 -149.0125 63° Northeast 510 587 38,000  Level FlightAware Transoceanic
Thu 08:07:00 PM 23.7855 -148.8743 63° Northeast 510 587 38,000  Level FlightAware Transoceanic
Thu 08:08:00 PM 23.8494 -148.7360 63° Northeast 510 587 38,000  Level FlightAware Transoceanic
Thu 08:09:00 PM 23.9131 -148.5976 63° Northeast 510 587 38,000  Level FlightAware Transoceanic
Thu 08:10:00 PM 23.9767 -148.4590 63° Northeast 510 587 38,000  Level FlightAware Transoceanic
Thu 08:11:00 PM 24.0402 -148.3203 63° Northeast 510 587 38,000  Level FlightAware Transoceanic
Thu 08:12:00 PM 24.1036 -148.1814 63° Northeast 510 587 38,000  Level FlightAware Transoceanic
Thu 08:13:00 PM 24.1669 -148.0424 64° Northeast 510 587 38,000  Level FlightAware Transoceanic
Thu 08:14:00 PM 24.2300 -147.9033 64° Northeast 510 587 38,000  Level FlightAware Transoceanic
Thu 08:15:00 PM 24.2930 -147.7640 64° Northeast 510 587 38,000  Level FlightAware Transoceanic
Thu 08:16:00 PM 24.3559 -147.6246 64° Northeast 510 587 38,000  Level FlightAware Transoceanic
Thu 08:17:00 PM 24.4186 -147.4850 64° Northeast 510 587 38,000  Level FlightAware Transoceanic
Thu 08:18:00 PM 24.4812 -147.3453 64° Northeast 510 587 38,000  Level FlightAware Transoceanic
Thu 08:19:00 PM 24.5437 -147.2055 64° Northeast 510 587 38,000  Level FlightAware Transoceanic
Thu 08:20:00 PM 24.6061 -147.0656 64° Northeast 510 587 38,000  Level FlightAware Transoceanic
Thu 08:21:00 PM 24.6683 -146.9254 64° Northeast 510 587 38,000  Level FlightAware Transoceanic
Thu 08:22:00 PM 24.7304 -146.7852 64° Northeast 510 587 38,000  Level FlightAware Transoceanic
Thu 08:23:00 PM 24.7924 -146.6448 64° Northeast 510 587 38,000  Level FlightAware Transoceanic
Thu 08:24:00 PM 24.8542 -146.5043 64° Northeast 510 587 38,000  Level FlightAware Transoceanic
Thu 08:25:00 PM 24.9159 -146.3636 64° Northeast 510 587 38,000  Level FlightAware Transoceanic
Thu 08:26:00 PM 24.9775 -146.2228 64° Northeast 510 587 38,000  Level FlightAware Transoceanic
Thu 08:27:00 PM 25.0389 -146.0819 64° Northeast 510 587 38,000  Level FlightAware Transoceanic
Thu 08:28:00 PM 25.1002 -145.9408 64° Northeast 510 587 38,000  Level FlightAware Transoceanic
Thu 08:29:00 PM 25.1614 -145.7995 64° Northeast 510 587 38,000  Level FlightAware Transoceanic
Thu 08:30:00 PM 25.2224 -145.6582 65° Northeast 510 587 38,000  Level FlightAware Transoceanic
Thu 08:31:00 PM 25.2833 -145.5167 65° Northeast 510 587 38,000  Level FlightAware Transoceanic
Thu 08:32:00 PM 25.3401 -145.3837 65° Northeast 510 587 38,000  Level FlightAware Transoceanic
Thu 08:32:31 PM 25.2833 -145.5167 65° Northeast 488 562 38,000  Level Oakland Oceanic (ODAPS)
Thu 08:33:00 PM 25.3967 -145.2505 65° Northeast 510 587 38,000  Level FlightAware Transoceanic
Thu 08:34:00 PM 25.4533 -145.1173 65° Northeast 510 587 38,000  Level FlightAware Transoceanic
Thu 08:35:00 PM 25.5097 -144.9839 65° Northeast 510 587 38,000  Level FlightAware Transoceanic
Thu 08:36:00 PM 25.5660 -144.8504 65° Northeast 510 587 38,000  Level FlightAware Transoceanic
Thu 08:37:00 PM 25.6222 -144.7168 65° Northeast 510 587 38,000  Level FlightAware Transoceanic
Thu 08:38:00 PM 25.6292 -144.7000 65° Northeast 488 562 38,000  Level FlightAware Transoceanic
Thu 08:39:00 PM 25.6864 -144.5635 65° Northeast 488 562 38,000  Level FlightAware Transoceanic
Thu 08:40:00 PM 25.7434 -144.4268 65° Northeast 488 562 38,000  Level FlightAware Transoceanic
Thu 08:41:00 PM 25.8004 -144.2900 65° Northeast 488 562 38,000  Level FlightAware Transoceanic
Thu 08:42:00 PM 25.8572 -144.1530 65° Northeast 488 562 38,000  Level FlightAware Transoceanic
Thu 08:43:00 PM 25.9139 -144.0159 65° Northeast 488 562 38,000  Level FlightAware Transoceanic
Thu 08:44:00 PM 25.9704 -143.8787 65° Northeast 488 562 38,000  Level FlightAware Transoceanic
Thu 08:45:00 PM 26.0268 -143.7413 65° Northeast 488 562 38,000  Level FlightAware Transoceanic
Thu 08:46:00 PM 26.0831 -143.6039 66° East 488 562 38,000  Level FlightAware Transoceanic
Thu 08:47:00 PM 26.1393 -143.4662 66° East 488 562 38,000  Level FlightAware Transoceanic
Thu 08:48:00 PM 26.1953 -143.3285 66° East 488 562 38,000  Level FlightAware Transoceanic
Thu 08:49:00 PM 26.2512 -143.1906 66° East 488 562 38,000  Level FlightAware Transoceanic
Thu 08:50:00 PM 26.3070 -143.0526 66° East 488 562 38,000  Level FlightAware Transoceanic
Thu 08:51:00 PM 26.3627 -142.9145 66° East 488 562 38,000  Level FlightAware Transoceanic
Thu 08:52:00 PM 26.4182 -142.7762 66° East 488 562 38,000  Level FlightAware Transoceanic
Thu 08:53:00 PM 26.4735 -142.6378 66° East 488 562 38,000  Level FlightAware Transoceanic
Thu 08:54:00 PM 26.5288 -142.4992 66° East 488 562 38,000  Level FlightAware Transoceanic
Thu 08:55:00 PM 26.5839 -142.3605 66° East 488 562 38,000  Level FlightAware Transoceanic
Thu 08:56:00 PM 26.6389 -142.2217 66° East 488 562 38,000  Level FlightAware Transoceanic
Thu 08:57:00 PM 26.6937 -142.0828 66° East 488 562 38,000  Level FlightAware Transoceanic
Thu 08:58:00 PM 26.7484 -141.9437 66° East 488 562 38,000  Level FlightAware Transoceanic
Thu 08:59:00 PM 26.8030 -141.8045 66° East 488 562 38,000  Level FlightAware Transoceanic
Thu 09:00:00 PM 26.8574 -141.6652 66° East 488 562 38,000  Level FlightAware Transoceanic
Thu 09:01:00 PM 26.9117 -141.5257 66° East 488 562 38,000  Level FlightAware Transoceanic
Thu 09:02:00 PM 26.9658 -141.3861 67° East 488 562 38,000  Level FlightAware Transoceanic
Thu 09:03:00 PM 27.0199 -141.2463 67° East 488 562 38,000  Level FlightAware Transoceanic
Thu 09:04:00 PM 27.0737 -141.1064 67° East 488 562 38,000  Level FlightAware Transoceanic
Thu 09:05:00 PM 27.1275 -140.9664 67° East 488 562 38,000  Level FlightAware Transoceanic
Thu 09:06:00 PM 27.1811 -140.8263 67° East 488 562 38,000  Level FlightAware Transoceanic
Thu 09:07:00 PM 27.2345 -140.6860 67° East 488 562 38,000  Level FlightAware Transoceanic
Thu 09:08:00 PM 27.2879 -140.5456 67° East 488 562 38,000  Level FlightAware Transoceanic
Thu 09:09:00 PM 27.3410 -140.4050 67° East 488 562 38,000  Level FlightAware Transoceanic
Thu 09:10:00 PM 27.3941 -140.2643 67° East 488 562 38,000  Level FlightAware Transoceanic
Thu 09:11:00 PM 27.4470 -140.1235 67° East 488 562 38,000  Level FlightAware Transoceanic
Thu 09:12:00 PM 27.4998 -139.9825 67° East 488 562 38,000  Level FlightAware Transoceanic
Thu 09:13:00 PM 27.5524 -139.8414 67° East 488 562 38,000  Level FlightAware Transoceanic
Thu 09:14:00 PM 27.6048 -139.7002 67° East 488 562 38,000  Level FlightAware Transoceanic
Thu 09:15:00 PM 27.6572 -139.5589 67° East 488 562 38,000  Level FlightAware Transoceanic
Thu 09:16:00 PM 27.7094 -139.4173 67° East 488 562 38,000  Level FlightAware Transoceanic
Thu 09:17:00 PM 27.7614 -139.2757 67° East 488 562 38,000  Level FlightAware Transoceanic
Thu 09:18:00 PM 27.8133 -139.1340 68° East 488 562 38,000  Level FlightAware Transoceanic
Thu 09:19:00 PM 27.8651 -138.9920 68° East 488 562 38,000  Level FlightAware Transoceanic
Thu 09:20:00 PM 27.9167 -138.8500 68° East 488 562 38,000  Level FlightAware Transoceanic
Thu 09:21:00 PM 27.9657 -138.7144 68° East 488 562 38,000  Level FlightAware Transoceanic
Thu 09:21:00 PM 27.9167 -138.8500 68° East 495 570 38,000  Level Oakland Oceanic (ODAPS)
Thu 09:22:00 PM 28.0147 -138.5786 68° East 488 562 38,000  Level FlightAware Transoceanic
Thu 09:23:00 PM 28.0635 -138.4427 68° East 488 562 38,000  Level FlightAware Transoceanic
Thu 09:24:00 PM 28.1122 -138.3067 68° East 488 562 38,000  Level FlightAware Transoceanic
Thu 09:25:00 PM 28.1607 -138.1706 68° East 488 562 38,000  Level FlightAware Transoceanic
Thu 09:26:00 PM 28.2091 -138.0343 68° East 488 562 38,000  Level FlightAware Transoceanic
Thu 09:27:00 PM 28.2780 -137.8394 68° East 495 570 38,000  Level FlightAware Transoceanic
Thu 09:28:00 PM 28.3291 -137.6945 68° East 495 570 38,000  Level FlightAware Transoceanic
Thu 09:29:00 PM 28.3799 -137.5494 68° East 495 570 38,000  Level FlightAware Transoceanic
Thu 09:30:00 PM 28.4306 -137.4042 68° East 495 570 38,000  Level FlightAware Transoceanic
Thu 09:31:00 PM 28.4812 -137.2589 68° East 495 570 38,000  Level FlightAware Transoceanic
Thu 09:32:00 PM 28.5316 -137.1134 69° East 495 570 38,000  Level FlightAware Transoceanic
Thu 09:33:00 PM 28.5818 -136.9678 69° East 495 570 38,000  Level FlightAware Transoceanic
Thu 09:34:00 PM 28.6319 -136.8220 69° East 495 570 38,000  Level FlightAware Transoceanic
Thu 09:35:00 PM 28.6818 -136.6761 69° East 495 570 38,000  Level FlightAware Transoceanic
Thu 09:36:00 PM 28.7316 -136.5301 69° East 495 570 38,000  Level FlightAware Transoceanic
Thu 09:37:00 PM 28.7812 -136.3839 69° East 495 570 38,000  Level FlightAware Transoceanic
Thu 09:38:00 PM 28.8307 -136.2376 69° East 495 570 38,000  Level FlightAware Transoceanic
Thu 09:39:00 PM 28.8800 -136.0912 69° East 495 570 38,000  Level FlightAware Transoceanic
Thu 09:40:00 PM 28.9291 -135.9446 69° East 495 570 38,000  Level FlightAware Transoceanic
Thu 09:41:00 PM 28.9781 -135.7979 69° East 495 570 38,000  Level FlightAware Transoceanic
Thu 09:42:00 PM 29.0270 -135.6510 69° East 495 570 38,000  Level FlightAware Transoceanic
Thu 09:43:00 PM 29.0756 -135.5040 69° East 495 570 38,000  Level FlightAware Transoceanic
Thu 09:44:00 PM 29.1241 -135.3568 69° East 495 570 38,000  Level FlightAware Transoceanic
Thu 09:45:00 PM 29.1725 -135.2095 69° East 495 570 38,000  Level FlightAware Transoceanic
Thu 09:46:00 PM 29.2207 -135.0621 70° East 495 570 38,000  Level FlightAware Transoceanic
Thu 09:47:00 PM 29.2687 -134.9146 70° East 495 570 38,000  Level FlightAware Transoceanic
Thu 09:48:00 PM 29.3166 -134.7669 70° East 495 570 38,000  Level FlightAware Transoceanic
Thu 09:49:00 PM 29.3643 -134.6190 70° East 495 570 38,000  Level FlightAware Transoceanic
Thu 09:50:00 PM 29.4118 -134.4711 70° East 495 570 38,000  Level FlightAware Transoceanic
Thu 09:51:00 PM 29.4592 -134.3229 70° East 495 570 38,000  Level FlightAware Transoceanic
Thu 09:52:00 PM 29.5064 -134.1747 70° East 495 570 38,000  Level FlightAware Transoceanic
Thu 09:53:00 PM 29.5534 -134.0263 70° East 495 570 38,000  Level FlightAware Transoceanic
Thu 09:54:00 PM 29.6003 -133.8778 70° East 495 570 38,000  Level FlightAware Transoceanic
Thu 09:55:00 PM 29.6470 -133.7291 70° East 495 570 38,000  Level FlightAware Transoceanic
Thu 09:56:00 PM 29.6936 -133.5803 70° East 495 570 38,000  Level FlightAware Transoceanic
Thu 09:57:00 PM 29.7399 -133.4313 70° East 495 570 38,000  Level FlightAware Transoceanic
Thu 09:58:00 PM 29.7861 -133.2823 70° East 495 570 38,000  Level FlightAware Transoceanic
Thu 09:59:00 PM 29.8322 -133.1330 70° East 495 570 38,000  Level FlightAware Transoceanic
Thu 10:00:00 PM 29.8781 -132.9837 71° East 495 570 38,000  Level FlightAware Transoceanic
Thu 10:01:00 PM 29.9238 -132.8342 71° East 495 570 38,000  Level FlightAware Transoceanic
Thu 10:02:00 PM 29.9693 -132.6846 71° East 495 570 38,000  Level FlightAware Transoceanic
Thu 10:03:00 PM 30.0147 -132.5348 71° East 495 570 38,000  Level FlightAware Transoceanic
Thu 10:04:00 PM 30.0599 -132.3849 71° East 495 570 38,000  Level FlightAware Transoceanic
Thu 10:05:00 PM 30.1049 -132.2349 71° East 495 570 38,000  Level FlightAware Transoceanic
Thu 10:06:00 PM 30.1498 -132.0847 71° East 495 570 38,000  Level FlightAware Transoceanic
Thu 10:07:00 PM 30.1945 -131.9344 71° East 495 570 38,000  Level FlightAware Transoceanic
Thu 10:08:00 PM 30.2390 -131.7839 71° East 495 570 38,000  Level FlightAware Transoceanic
Thu 10:09:00 PM 30.2833 -131.6333 71° East 495 570 38,000  Level FlightAware Transoceanic
Thu 10:10:00 PM 30.3260 -131.4887 71° East 495 570 38,000  Level FlightAware Transoceanic
Thu 10:11:00 PM 30.3686 -131.3439 71° East 495 570 38,000  Level FlightAware Transoceanic
Thu 10:12:00 PM 30.4110 -131.1990 71° East 495 570 38,000  Level FlightAware Transoceanic
Thu 10:12:06 PM 30.2833 -131.6333 71° East 485 558 38,000  Level Oakland Oceanic (ODAPS)
Thu 10:13:00 PM 30.4532 -131.0540 71° East 495 570 38,000  Level FlightAware Transoceanic
Thu 10:14:00 PM 30.4953 -130.9088 71° East 495 570 38,000  Level FlightAware Transoceanic
Thu 10:15:00 PM 30.5372 -130.7636 72° East 495 570 38,000  Level FlightAware Transoceanic
Thu 10:16:00 PM 30.5789 -130.6182 72° East 495 570 38,000  Level FlightAware Transoceanic
Thu 10:17:00 PM 30.6205 -130.4727 72° East 495 570 38,000  Level FlightAware Transoceanic
Thu 10:18:00 PM 30.5848 -130.5978 72° East 485 558 38,000  Level FlightAware Transoceanic
Thu 10:19:00 PM 30.6272 -130.4494 72° East 485 558 38,000  Level FlightAware Transoceanic
Thu 10:20:00 PM 30.6694 -130.3008 72° East 485 558 38,000  Level FlightAware Transoceanic
Thu 10:21:00 PM 30.7114 -130.1521 72° East 485 558 38,000  Level FlightAware Transoceanic
Thu 10:22:00 PM 30.7533 -130.0032 72° East 485 558 38,000  Level FlightAware Transoceanic
Thu 10:23:00 PM 30.7950 -129.8543 72° East 485 558 38,000  Level FlightAware Transoceanic
Thu 10:24:00 PM 30.8366 -129.7052 72° East 485 558 38,000  Level FlightAware Transoceanic
Thu 10:25:00 PM 30.8780 -129.5559 72° East 485 558 38,000  Level FlightAware Transoceanic
Thu 10:26:00 PM 30.9192 -129.4066 72° East 485 558 38,000  Level FlightAware Transoceanic
Thu 10:27:00 PM 30.9602 -129.2571 72° East 485 558 38,000  Level FlightAware Transoceanic
Thu 10:28:00 PM 31.0010 -129.1075 72° East 485 558 38,000  Level FlightAware Transoceanic
Thu 10:29:00 PM 31.0417 -128.9577 72° East 485 558 38,000  Level FlightAware Transoceanic
Thu 10:30:00 PM 31.0822 -128.8079 73° East 485 558 38,000  Level FlightAware Transoceanic
Thu 10:31:00 PM 31.1226 -128.6579 73° East 485 558 38,000  Level FlightAware Transoceanic
Thu 10:32:00 PM 31.1627 -128.5078 73° East 485 558 38,000  Level FlightAware Transoceanic
Thu 10:33:00 PM 31.2027 -128.3575 73° East 485 558 38,000  Level FlightAware Transoceanic
Thu 10:34:00 PM 31.2425 -128.2071 73° East 485 558 38,000  Level FlightAware Transoceanic
Thu 10:35:00 PM 31.2822 -128.0566 73° East 485 558 38,000  Level FlightAware Transoceanic
Thu 10:36:00 PM 31.3217 -127.9060 73° East 485 558 38,000  Level FlightAware Transoceanic
Thu 10:37:00 PM 31.3609 -127.7552 73° East 485 558 38,000  Level FlightAware Transoceanic
Thu 10:38:00 PM 31.4001 -127.6043 73° East 485 558 38,000  Level FlightAware Transoceanic
Thu 10:39:00 PM 31.4390 -127.4533 73° East 485 558 38,000  Level FlightAware Transoceanic
Thu 10:40:00 PM 31.4778 -127.3022 73° East 485 558 38,000  Level FlightAware Transoceanic
Thu 10:41:00 PM 31.5163 -127.1509 73° East 485 558 38,000  Level FlightAware Transoceanic
Thu 10:42:00 PM 31.5547 -126.9996 73° East 485 558 38,000  Level FlightAware Transoceanic
Thu 10:43:00 PM 31.5930 -126.8481 74° East 485 558 38,000  Level FlightAware Transoceanic
Thu 10:44:00 PM 31.6310 -126.6964 74° East 485 558 38,000  Level FlightAware Transoceanic
Thu 10:45:00 PM 31.6689 -126.5447 74° East 485 558 38,000  Level FlightAware Transoceanic
Thu 10:46:00 PM 31.7066 -126.3928 74° East 485 558 38,000  Level FlightAware Transoceanic
Thu 10:47:00 PM 31.7441 -126.2408 74° East 485 558 38,000  Level FlightAware Transoceanic
Thu 10:48:00 PM 31.7814 -126.0887 74° East 485 558 38,000  Level FlightAware Transoceanic
Thu 10:49:00 PM 31.8185 -125.9364 74° East 485 558 38,000  Level FlightAware Transoceanic
Thu 10:50:00 PM 31.8555 -125.7840 74° East 485 558 38,000  Level FlightAware Transoceanic
Thu 10:51:00 PM 31.8923 -125.6316 74° East 485 558 38,000  Level FlightAware Transoceanic
Thu 10:52:00 PM 31.9289 -125.4789 74° East 485 558 38,000  Level FlightAware Transoceanic
Thu 10:53:00 PM 31.9653 -125.3262 74° East 485 558 38,000  Level FlightAware Transoceanic
Thu 10:54:00 PM 32.0015 -125.1733 74° East 485 558 38,000  Level FlightAware Transoceanic
Thu 10:55:00 PM 32.0376 -125.0204 75° East 485 558 38,000  Level FlightAware Transoceanic
Thu 10:56:00 PM 32.0734 -124.8673 75° East 485 558 38,000  Level FlightAware Transoceanic
Thu 10:57:00 PM 32.1091 -124.7141 75° East 485 558 38,000  Level FlightAware Transoceanic
Thu 10:58:00 PM 32.1446 -124.5607 75° East 485 558 38,000  Level FlightAware Transoceanic
Thu 10:59:00 PM 32.1799 -124.4073 75° East 485 558 38,000  Level FlightAware Transoceanic
Thu 11:00:00 PM 32.2151 -124.2537 75° East 485 558 38,000  Level FlightAware Transoceanic
Thu 11:00:49 PM 32.1842 -124.2469 77° East 488 562 38,000  Level Los Angeles Center
Thu 11:01:00 PM 32.2500 -124.1000 77° East 485 558 38,000  Level FlightAware Transoceanic
Thu 11:01:50 PM 32.2156 -124.1269 73° East 485 558 38,000  Level Los Angeles Center
Thu 11:02:00 PM 32.2815 -123.9432 77° East 485 558 38,000  Level FlightAware Transoceanic
Thu 11:02:52 PM 32.2686 -123.9164 73° East 481 554 38,000  Level Los Angeles Center
Thu 11:03:00 PM 32.3129 -123.7862 77° East 485 558 38,000  Level FlightAware Transoceanic
Thu 11:03:54 PM 32.3208 -123.7661 68° East 488 562 38,000  Level Los Angeles Center
Thu 11:04:00 PM 32.3440 -123.6292 77° East 485 558 38,000  Level FlightAware Transoceanic
Thu 11:05:00 PM 32.3750 -123.4721 77° East 485 558 38,000  Level FlightAware Transoceanic
Thu 11:05:08 PM 32.3825 -123.6208 63° Northeast 495 570 38,000  Level Los Angeles Center
Thu 11:06:00 PM 32.4057 -123.3148 77° East 485 558 38,000  Level FlightAware Transoceanic
Thu 11:06:10 PM 32.4547 -123.4453 64° Northeast 496 571 38,000  Level Los Angeles Center
Thu 11:07:12 PM 32.5139 -123.2978 65° Northeast 495 570 38,000  Level Los Angeles Center
Thu 11:08:13 PM 32.5736 -123.1506 64° Northeast 496 571 38,000  Level Los Angeles Center
Thu 11:09:15 PM 32.6461 -122.9733 64° Northeast 498 573 38,000  Level Los Angeles Center
Thu 11:10:17 PM 32.7019 -122.8211 66° East 500 575 38,000  Level Los Angeles Center
Thu 11:11:19 PM 32.7622 -122.6753 64° Northeast 498 573 38,000  Level Los Angeles Center
Thu 11:12:20 PM 32.8214 -122.5253 65° Northeast 500 575 38,000  Level Los Angeles Center
Thu 11:13:22 PM 32.8797 -122.3756 65° Northeast 500 575 38,000  Level Los Angeles Center
Thu 11:14:24 PM 32.9381 -122.2239 65° Northeast 503 579 38,000  Level Los Angeles Center
Thu 11:20:31 PM 33.3150 -121.2820 65° Northeast 500 575 38,000  Level FlightAware ADS-B
Thu 11:21:11 PM 33.3500 -121.1920 65° Northeast 500 575 38,000  Level FlightAware ADS-B
Thu 11:21:46 PM 33.3850 -121.0980 66° East 499 574 38,000  Level FlightAware ADS-B
Thu 11:22:27 PM 33.4250 -120.9910 66° East 499 574 38,000  Level FlightAware ADS-B
Thu 11:23:28 PM 33.4730 -120.8600 66° East 499 574 38,000  Level FlightAware ADS-B
Thu 11:24:16 PM 33.5230 -120.7260 66° East 500 575 38,000 -1,038 Level FlightAware ADS-B
Thu 11:25:12 PM 33.5760 -120.5830 66° East 502 578 36,200 -1,038 Descending FlightAware ADS-B
Thu 11:26:00 PM 33.6140 -120.4790 66° East 502 578 36,200  Level FlightAware ADS-B
Thu 11:26:36 PM 33.6430 -120.4010 66° East 502 578 36,200 -5,368 Level FlightAware ADS-B
Thu 11:27:16 PM 33.6920 -120.2650 67° East 512 589 29,400 -6,813 Descending FlightAware ADS-B
Thu 11:28:12 PM 33.7460 -120.1140 67° East 490 564 25,300 -3,742 Descending FlightAware ADS-B
Thu 11:28:49 PM 33.7800 -120.0200 66° East 478 550 23,600 -2,645 Descending FlightAware ADS-B
Thu 11:29:45 PM 33.8280 -119.8850 67° East 455 524 21,200 -2,563 Descending FlightAware ADS-B
Thu 11:30:25 PM 33.8600 -119.7960 67° East 443 510 19,500 -2,175 Descending FlightAware ADS-B
Thu 11:31:05 PM 33.8920 -119.7070 67° East 425 489 18,300 -1,724 Descending FlightAware ADS-B
Thu 11:31:52 PM 33.9280 -119.6050 67° East 417 480 17,000 -1,537 Descending FlightAware ADS-B
Thu 11:32:27 PM 33.9540 -119.5320 67° East 415 478 16,200 -1,412 Descending FlightAware ADS-B
Thu 11:33:17 PM 33.9920 -119.4240 67° East 406 467 15,000 -1,407 Descending FlightAware ADS-B
Thu 11:33:48 PM 34.0140 -119.3610 67° East 401 461 14,300 -1,297 Descending FlightAware ADS-B
Thu 11:34:31 PM 34.0450 -119.2740 67° East 392 451 13,400 -1,311 Descending FlightAware ADS-B
Thu 11:35:22 PM 34.0760 -119.1860 67° East 12,400 -1,342 Descending FlightAware ADS-B
Thu 11:35:47 PM 34.0910 -119.1410 68° East 354 407 11,700 -1,902 Descending FlightAware ADS-B
Thu 11:36:03 PM 34.0950 -119.1000 83° East 362 417 11,100 -712 Descending FlightAware ADS-B
Thu 11:36:46 PM 34.0870 -119.0160 97° East 365 420 11,000 -71 Descending FlightAware ADS-B
Thu 11:37:27 PM 34.0770 -118.9320 98° East 365 420 11,000 -70 Level FlightAware ADS-B
Thu 11:38:12 PM 34.0670 -118.8490 98° East 364 419 10,900 -769 Descending FlightAware ADS-B
Thu 11:38:45 PM 34.0570 -118.7780 100° East 336 387 10,000 -938 Descending FlightAware ADS-B
Thu 11:39:16 PM 34.0510 -118.7250 98° East 305 351 9,900  Descending FlightAware ADS-B
Thu 11:39:47 PM 34.0450 -118.6740 98° East 275 316 10,000 109 Climbing FlightAware ADS-B
Thu 11:40:11 PM 34.0420 -118.6540 100° East 263 303 10,000 -273 Level FlightAware ADS-B
Thu 11:40:31 PM 34.0370 -118.6200 100° East 259 298 9,800 -960 Descending FlightAware ADS-B
Thu 11:41:01 PM 34.0320 -118.5790 98° East 259 298 9,200 -1,100 Descending FlightAware ADS-B
Thu 11:41:31 PM 34.0270 -118.5420 99° East 259 298 8,700 -1,100 Descending FlightAware ADS-B
Thu 11:42:01 PM 34.0220 -118.4960 97° East 258 297 8,100 -1,200 Descending FlightAware ADS-B
Thu 11:42:21 PM 34.0180 -118.4660 99° East 258 297 7,700 -1,371 Descending FlightAware ADS-B
Thu 11:42:36 PM 34.0180 -118.4450 90° East 257 296 7,300 -1,800 Descending FlightAware ADS-B
Thu 11:43:01 PM 34.0210 -118.4080 84° East 256 295 6,500 -1,800 Descending FlightAware ADS-B
Thu 11:43:16 PM 34.0220 -118.3880 87° East 255 293 6,100 -1,333 Descending FlightAware ADS-B
Thu 11:43:46 PM 34.0250 -118.3480 85° East 230 265 5,500 -960 Descending FlightAware ADS-B
Thu 11:44:06 PM 34.0270 -118.3260 84° East 211 243 5,300 -857 Descending FlightAware ADS-B
Thu 11:44:21 PM 34.0280 -118.3090 86° East 205 236 5,000 -1,080 Descending FlightAware ADS-B
Thu 11:44:56 PM 34.0310 -118.2690 85° East 201 231 4,400 -1,375 Descending FlightAware ADS-B
Thu 11:45:09 PM 34.0330 -118.2420 85° East 202 232 3,900 -1,463 Descending FlightAware ADS-B
Thu 11:45:37 PM 34.0350 -118.2110 86° East 201 231 3,400 -857 Descending FlightAware ADS-B
Thu 11:46:05 PM 34.0370 -118.1810 85° East 190 219 3,100 -750 Descending FlightAware ADS-B
Thu 11:46:33 PM 34.0390 -118.1520 85° East 181 208 2,700 -536 Descending FlightAware ADS-B
Thu 11:47:01 PM 34.0420 -118.1240 83° East 176 203 2,600 -146 Descending FlightAware ADS-B
Thu 11:47:14 PM 34.0430 -118.1130 84° East 178 205 2,600  Level FlightAware ADS-B
Thu 11:47:41 PM 34.0460 -118.0850 83° East 175 201 2,600  Level FlightAware ADS-B
Thu 11:47:57 PM 34.0430 -118.0700 104° East 175 201 2,600  Level FlightAware ADS-B
Thu 11:48:09 PM 34.0360 -118.0630 140° Southeast 179 206 2,600  Level FlightAware ADS-B
Thu 11:48:25 PM 34.0240 -118.0600 168° South 180 207 2,600  Level FlightAware ADS-B
Thu 11:48:37 PM 34.0130 -118.0600 180° South 180 207 2,600  Level FlightAware ADS-B
Thu 11:49:21 PM 33.9870 -118.0830 216° Southwest 186 214 2,600 -86 Level FlightAware ADS-B
Thu 11:49:47 PM 33.9830 -118.1090 259° West 181 208 2,500  Descending FlightAware ADS-B
Thu 11:50:19 PM 33.9800 -118.1400 263° West 175 201 2,600 100 Climbing FlightAware ADS-B
Thu 11:50:47 PM 33.9770 -118.1670 262° West 173 199 2,600  Level FlightAware ADS-B
Thu 11:51:15 PM 33.9740 -118.1920 262° West 173 199 2,600  Level FlightAware ADS-B
Thu 11:51:42 PM 33.9710 -118.2170 262° West 172 198 2,600  Level FlightAware ADS-B
Thu 11:52:06 PM 33.9690 -118.2380 263° West 170 196 2,600 -346 Level FlightAware ADS-B
Thu 11:52:34 PM 33.9660 -118.2690 263° West 174 200 2,300 -750 Descending FlightAware ADS-B
Thu 11:52:46 PM 33.9650 -118.2790 263° West 172 198 2,100 -698 Descending FlightAware ADS-B
Thu 11:53:17 PM 33.9620 -118.3010 261° West 167 192 1,800 -200 Descending FlightAware ADS-B
Thu 11:53:46 PM 33.9600 -118.3250 264° West 145 167 1,900 222 Climbing FlightAware ADS-B
Thu 11:54:11 PM 33.9570 -118.3480 261° West 185 213 2,000 133 Climbing FlightAware ADS-B
Thu 11:54:31 PM 33.9540 -118.3670 259° West 202 232 2,000  Level FlightAware ADS-B
Thu 11:55:01 PM 33.9500 -118.4070 263° West 234 269 2,000  Level FlightAware ADS-B
Thu 11:55:31 PM 33.9470 -118.4460 265° West 230 265 2,000  Level FlightAware ADS-B
Thu 11:55:46 PM 33.9450 -118.4650 263° West 227 261 2,000 327 Level FlightAware ADS-B
Thu 11:56:26 PM 33.9550 -118.5090 285° West 233 268 2,300 923 Climbing FlightAware ADS-B
Thu 11:56:51 PM 33.9690 -118.5350 303° West 239 275 3,000 1,886 Climbing FlightAware ADS-B
Thu 11:57:01 PM 33.9760 -118.5480 303° West 234 269 3,400 2,400 Climbing FlightAware ADS-B
Thu 11:57:31 PM 33.9960 -118.5800 307° West 229 264 4,600 2,100 Climbing FlightAware ADS-B
Thu 11:57:41 PM 34.0030 -118.5850 329° Northwest 235 270 4,800 600 Climbing FlightAware ADS-B
Thu 11:58:11 PM 34.0380 -118.5760 12° North 250 288 5,000 300 Climbing FlightAware ADS-B
Thu 11:58:21 PM 34.0440 -118.5660 54° Northeast 245 282 5,000  Level FlightAware ADS-B
Thu 11:58:36 PM 34.0480 -118.5470 76° East 236 272 5,000  Level FlightAware ADS-B
Thu 11:59:01 PM 34.0500 -118.5140 86° East 214 246 5,000  Level FlightAware ADS-B
Thu 11:59:26 PM 34.0530 -118.4850 83° East 212 244 5,000  Level FlightAware ADS-B
Thu 11:59:56 PM 34.0450 -118.4540 107° East 209 241 5,000 -100 Level FlightAware ADS-B
Fri 12:00:26 AM 34.0230 -118.4320 140° Southeast 209 241 4,900  Descending FlightAware ADS-B
Fri 12:00:51 AM 34.0020 -118.4130 143° Southeast 207 238 5,000 150 Climbing FlightAware ADS-B
Fri 12:01:06 AM 33.9900 -118.4070 157° South 205 236 5,000  Level FlightAware ADS-B
Fri 12:01:31 AM 33.9700 -118.3990 162° South 206 237 5,000  Level FlightAware ADS-B
Fri 12:01:51 AM 33.9540 -118.3830 140° Southeast 211 243 5,000  Level FlightAware ADS-B
Fri 12:02:16 AM 33.9430 -118.3600 120° Southeast 210 242 5,000 -171 Level FlightAware ADS-B
Fri 12:02:26 AM 33.9390 -118.3510 118° Southeast 209 241 4,900  Descending FlightAware ADS-B
Fri 12:02:56 AM 33.9160 -118.3080 123° Southeast 212 244 5,000 122 Climbing FlightAware ADS-B
Fri 12:03:15 AM 33.9100 -118.2900 112° Southeast 211 243 5,000  Level FlightAware ADS-B
Fri 12:03:35 AM 33.9050 -118.2660 104° East 212 244 5,000  Level FlightAware ADS-B
Fri 12:03:51 AM 33.9020 -118.2480 101° East 212 244 5,000  Level FlightAware ADS-B
Fri 12:04:19 AM 33.8960 -118.2170 103° East 212 244 5,000  Level FlightAware ADS-B
Fri 12:04:46 AM 33.8910 -118.1820 100° East 213 245 5,000  Level FlightAware ADS-B
Fri 12:05:14 AM 33.8930 -118.1490 86° East 212 244 5,000 -444 Level FlightAware ADS-B
Fri 12:05:40 AM 33.8960 -118.1190 83° East 209 241 4,600 -1,000 Descending FlightAware ADS-B
Fri 12:06:08 AM 33.8980 -118.0860 86° East 210 242 4,100 -750 Descending FlightAware ADS-B
Fri 12:06:36 AM 33.9010 -118.0530 84° East 210 242 3,900 -273 Descending FlightAware ADS-B
Fri 12:06:52 AM 33.9050 -118.0360 74° East 206 237 3,900 107 Level FlightAware ADS-B
Fri 12:07:32 AM 33.9330 -118.0430 348° North 181 208 4,000 88 Climbing FlightAware ADS-B
Fri 12:08:00 AM 33.9420 -118.0670 294° West 161 185 4,000  Level FlightAware ADS-B
Fri 12:08:16 AM 33.9470 -118.0810 293° West 159 183 4,000  Level FlightAware ADS-B
Fri 12:08:36 AM 33.9530 -118.0960 296° West 158 182 4,000  Level FlightAware ADS-B
Fri 12:09:04 AM 33.9610 -118.1190 293° West 154 177 4,000  Level FlightAware ADS-B
Fri 12:09:32 AM 33.9600 -118.1430 267° West 155 178 4,000 -214 Level FlightAware ADS-B
Fri 12:10:00 AM 33.9580 -118.1670 264° West 157 181 3,800 -692 Descending FlightAware ADS-B
Fri 12:10:24 AM 33.9560 -118.1880 263° West 159 183 3,400 -875 Descending FlightAware ADS-B
Fri 12:10:48 AM 33.9540 -118.2080 263° West 166 191 3,100 -750 Descending FlightAware ADS-B
Fri 12:10:56 AM 33.9530 -118.2170 262° West 167 192 3,000 -474 Descending FlightAware ADS-B
Fri 12:11:26 AM 33.9520 -118.2300 265° West 168 193 2,800 -868 Descending FlightAware ADS-B
Fri 12:12:12 AM 33.9460 -118.2860 263° West 161 185 1,900 -1,091 Descending FlightAware ADS-B
Fri 12:12:32 AM 33.9450 -118.3050 266° West 145 167 1,600 -783 Descending FlightAware ADS-B
Fri 12:12:58 AM 33.9430 -118.3240 263° West 138 159 1,300 -750 Descending FlightAware ADS-B
Fri 12:13:12 AM 33.9420 -118.3350 264° West 135 155 1,100 -667 Descending FlightAware ADS-B
Fri 12:13:52 AM 33.9390 -118.3620 262° West 126 145 700 -577 Descending FlightAware ADS-B
Fri 12:14:04 AM 33.9390 -118.3680 270° West 126 145 600 -490 Descending FlightAware ADS-B
Fri 12:14:41 AM 33.9370 -118.3840 261° West 126 145 300 -421 Descending FlightAware ADS-B
Fri 12:15:01 AM 33.9360 -118.3950 264° West 134 154 200 -300 Descending FlightAware ADS-B

Login

Don't have an account? Register now (free) for customized features, flight alerts, and more!